Wetterdaten: Donnerstag, 24.05.2007
Datum Zeit Temp. A. Feuchte A. Luftdruck Regen Wind Richtung Richtung Sonnenschein UV Solar Windben
24.05.2007 00:00 15,7 C 79 % 1019,4 hPa 0,0 mm 0,0 km/h (0 Bft) O 90 0 min 0 UV-I 0 W/m 1,6 km/h (1 Bft)
24.05.2007 00:10 15,4 C 80 % 1019,5 hPa 0,0 mm 0,0 km/h (0 Bft) N 0 0 min 0 UV-I 0 W/m 0,0 km/h (0 Bft)
24.05.2007 00:20 15,2 C 81 % 1019,5 hPa 0,0 mm 0,0 km/h (0 Bft) N 0 0 min 0 UV-I 0 W/m 0,0 km/h (0 Bft)
24.05.2007 00:30 15,0 C 81 % 1019,5 hPa 0,0 mm 0,0 km/h (0 Bft) N 0 0 min 0 UV-I 0 W/m 0,0 km/h (0 Bft)
24.05.2007 00:40 15,0 C 81 % 1019,5 hPa 0,0 mm 0,0 km/h (0 Bft) N 0 0 min 0 UV-I 0 W/m 0,0 km/h (0 Bft)
24.05.2007 00:50 14,8 C 82 % 1019,5 hPa 0,0 mm 0,0 km/h (0 Bft) N 0 0 min 0 UV-I 0 W/m 0,0 km/h (0 Bft)
24.05.2007 01:00 14,7 C 82 % 1019,3 hPa 0,0 mm 0,0 km/h (0 Bft) N 0 0 min 0 UV-I 0 W/m 0,0 km/h (0 Bft)
24.05.2007 01:10 14,6 C 83 % 1019,4 hPa 0,0 mm 0,0 km/h (0 Bft) N 0 0 min 0 UV-I 0 W/m 0,0 km/h (0 Bft)
24.05.2007 01:20 14,4 C 83 % 1019,4 hPa 0,0 mm 0,0 km/h (0 Bft) N 0 0 min 0 UV-I 0 W/m 0,0 km/h (0 Bft)
24.05.2007 01:30 14,2 C 85 % 1019,3 hPa 0,0 mm 0,0 km/h (0 Bft) N 0 0 min 0 UV-I 0 W/m 0,0 km/h (0 Bft)
24.05.2007 01:40 14,2 C 86 % 1019,2 hPa 0,0 mm 0,0 km/h (0 Bft) O 90 0 min 0 UV-I 0 W/m 1,6 km/h (1 Bft)
24.05.2007 01:50 14,1 C 86 % 1019,1 hPa 0,0 mm 0,0 km/h (0 Bft) N 0 0 min 0 UV-I 0 W/m 0,0 km/h (0 Bft)
24.05.2007 02:00 14,0 C 86 % 1019,1 hPa 0,0 mm 0,0 km/h (0 Bft) N 0 0 min 0 UV-I 0 W/m 0,0 km/h (0 Bft)
24.05.2007 02:10 13,8 C 87 % 1019,0 hPa 0,0 mm 0,0 km/h (0 Bft) N 0 0 min 0 UV-I 0 W/m 0,0 km/h (0 Bft)
24.05.2007 02:20 13,6 C 87 % 1018,9 hPa 0,0 mm 0,0 km/h (0 Bft) N 0 0 min 0 UV-I 0 W/m 0,0 km/h (0 Bft)
24.05.2007 02:30 13,4 C 87 % 1018,9 hPa 0,0 mm 0,0 km/h (0 Bft) N 0 0 min 0 UV-I 0 W/m 0,0 km/h (0 Bft)
24.05.2007 02:40 13,3 C 87 % 1018,8 hPa 0,0 mm 0,0 km/h (0 Bft) N 0 0 min 0 UV-I 0 W/m 0,0 km/h (0 Bft)
24.05.2007 02:50 13,2 C 87 % 1018,6 hPa 0,0 mm 0,0 km/h (0 Bft) N 0 0 min 0 UV-I 0 W/m 0,0 km/h (0 Bft)
24.05.2007 03:00 13,2 C 87 % 1018,6 hPa 0,0 mm 0,0 km/h (0 Bft) N 0 0 min 0 UV-I 0 W/m 0,0 km/h (0 Bft)
24.05.2007 03:10 13,1 C 87 % 1018,7 hPa 0,0 mm 0,0 km/h (0 Bft) N 0 0 min 0 UV-I 0 W/m 0,0 km/h (0 Bft)
24.05.2007 03:20 13,0 C 87 % 1018,7 hPa 0,0 mm 0,0 km/h (0 Bft) N 0 0 min 0 UV-I 0 W/m 0,0 km/h (0 Bft)
24.05.2007 03:30 12,9 C 87 % 1018,7 hPa 0,0 mm 0,0 km/h (0 Bft) N 0 0 min 0 UV-I 0 W/m 0,0 km/h (0 Bft)
24.05.2007 03:40 12,9 C 88 % 1018,7 hPa 0,0 mm 0,0 km/h (0 Bft) N 0 0 min 0 UV-I 0 W/m 0,0 km/h (0 Bft)
24.05.2007 03:50 12,8 C 88 % 1018,8 hPa 0,0 mm 0,0 km/h (0 Bft) N 0 0 min 0 UV-I 0 W/m 0,0 km/h (0 Bft)
24.05.2007 04:00 12,7 C 88 % 1018,7 hPa 0,0 mm 0,0 km/h (0 Bft) N 0 0 min 0 UV-I 0 W/m 0,0 km/h (0 Bft)
24.05.2007 04:10 12,6 C 88 % 1018,5 hPa 0,0 mm 0,0 km/h (0 Bft) N 0 0 min 0 UV-I 0 W/m 0,0 km/h (0 Bft)
24.05.2007 04:20 12,5 C 88 % 1018,5 hPa 0,0 mm 0,0 km/h (0 Bft) N 0 0 min 0 UV-I 0 W/m 0,0 km/h (0 Bft)
24.05.2007 04:30 12,5 C 88 % 1018,4 hPa 0,0 mm 0,0 km/h (0 Bft) N 0 0 min 0 UV-I 0 W/m 0,0 km/h (0 Bft)
24.05.2007 04:40 12,5 C 89 % 1018,2 hPa 0,0 mm 0,0 km/h (0 Bft) N 0 0 min 0 UV-I 0 W/m 0,0 km/h (0 Bft)
24.05.2007 04:50 12,4 C 89 % 1018,1 hPa 0,0 mm 0,0 km/h (0 Bft) N 0 0 min 0 UV-I 0 W/m 0,0 km/h (0 Bft)
24.05.2007 05:00 12,4 C 88 % 1018,1 hPa 0,0 mm 0,0 km/h (0 Bft) N 0 0 min 0 UV-I 0 W/m 0,0 km/h (0 Bft)
24.05.2007 05:10 12,4 C 88 % 1017,9 hPa 0,0 mm 0,0 km/h (0 Bft) N 0 0 min 0 UV-I 0 W/m 0,0 km/h (0 Bft)
24.05.2007 05:20 12,4 C 88 % 1017,9 hPa 0,0 mm 0,0 km/h (0 Bft) N 0 0 min 0 UV-I 0 W/m 0,0 km/h (0 Bft)
24.05.2007 05:30 12,3 C 88 % 1017,8 hPa 0,0 mm 0,0 km/h (0 Bft) N 0 0 min 0 UV-I 5 W/m 0,0 km/h (0 Bft)
24.05.2007 05:40 12,4 C 88 % 1017,7 hPa 0,0 mm 0,0 km/h (0 Bft) N 0 0 min 0 UV-I 9 W/m 0,0 km/h (0 Bft)
24.05.2007 05:50 12,4 C 89 % 1017,7 hPa 0,0 mm 0,0 km/h (0 Bft) N 0 0 min 0 UV-I 16 W/m 0,0 km/h (0 Bft)
24.05.2007 06:00 12,4 C 90 % 1017,6 hPa 0,0 mm 0,0 km/h (0 Bft) N 0 0 min 0 UV-I 21 W/m 0,0 km/h (0 Bft)
24.05.2007 06:10 12,6 C 89 % 1017,6 hPa 0,0 mm 0,0 km/h (0 Bft) N 0 0 min 0 UV-I 26 W/m 0,0 km/h (0 Bft)
24.05.2007 06:20 12,6 C 89 % 1017,6 hPa 0,0 mm 0,0 km/h (0 Bft) N 0 0 min 0 UV-I 30 W/m 0,0 km/h (0 Bft)
24.05.2007 06:30 12,8 C 89 % 1017,5 hPa 0,0 mm 0,0 km/h (0 Bft) N 0 0 min 0 UV-I 35 W/m 0,0 km/h (0 Bft)
24.05.2007 06:40 12,9 C 89 % 1017,5 hPa 0,0 mm 0,0 km/h (0 Bft) N 0 0 min 0 UV-I 46 W/m 0,0 km/h (0 Bft)
24.05.2007 06:50 13,2 C 89 % 1017,5 hPa 0,0 mm 0,0 km/h (0 Bft) N 0 0 min 0 UV-I 58 W/m 0,0 km/h (0 Bft)
24.05.2007 07:00 13,5 C 87 % 1017,4 hPa 0,0 mm 0,0 km/h (0 Bft) N 0 0 min 0 UV-I 83 W/m 0,0 km/h (0 Bft)
24.05.2007 07:10 13,7 C 85 % 1017,3 hPa 0,0 mm 0,0 km/h (0 Bft) N 0 0 min 0 UV-I 132 W/m 0,0 km/h (0 Bft)
24.05.2007 07:20 14,1 C 84 % 1017,3 hPa 0,0 mm 0,0 km/h (0 Bft) N 0 0 min 0 UV-I 146 W/m 0,0 km/h (0 Bft)
24.05.2007 07:30 14,6 C 83 % 1017,2 hPa 0,0 mm 0,0 km/h (0 Bft) N 0 10 min 1 UV-I 172 W/m 0,0 km/h (0 Bft)
24.05.2007 07:40 15,2 C 79 % 1017,2 hPa 0,0 mm 0,0 km/h (0 Bft) N 0 10 min 1 UV-I 193 W/m 0,0 km/h (0 Bft)
24.05.2007 07:50 15,7 C 76 % 1017,2 hPa 0,0 mm 0,0 km/h (0 Bft) N 0 10 min 1 UV-I 216 W/m 0,0 km/h (0 Bft)
24.05.2007 08:00 16,1 C 79 % 1017,3 hPa 0,0 mm 0,0 km/h (0 Bft) N 0 10 min 1 UV-I 251 W/m 0,0 km/h (0 Bft)
24.05.2007 08:10 16,5 C 79 % 1017,3 hPa 0,0 mm 0,0 km/h (0 Bft) N 0 10 min 1 UV-I 269 W/m 0,0 km/h (0 Bft)
24.05.2007 08:20 16,6 C 79 % 1017,3 hPa 0,0 mm 0,0 km/h (0 Bft) N 0 10 min 1 UV-I 290 W/m 0,0 km/h (0 Bft)
24.05.2007 08:30 16,8 C 77 % 1017,3 hPa 0,0 mm 0,0 km/h (0 Bft) N 0 10 min 1 UV-I 306 W/m 0,0 km/h (0 Bft)
24.05.2007 08:40 16,9 C 77 % 1017,2 hPa 0,0 mm 0,0 km/h (0 Bft) N 0 10 min 1 UV-I 338 W/m 0,0 km/h (0 Bft)
24.05.2007 08:50 17,2 C 76 % 1017,0 hPa 0,0 mm 0,0 km/h (0 Bft) N 0 10 min 2 UV-I 367 W/m 0,0 km/h (0 Bft)
24.05.2007 09:00 17,6 C 77 % 1017,0 hPa 0,0 mm 0,0 km/h (0 Bft) N 0 10 min 2 UV-I 394 W/m 0,0 km/h (0 Bft)
24.05.2007 09:10 18,1 C 76 % 1017,0 hPa 0,0 mm 0,0 km/h (0 Bft) N 0 10 min 2 UV-I 397 W/m 0,0 km/h (0 Bft)
24.05.2007 09:20 18,7 C 76 % 1017,0 hPa 0,0 mm 0,0 km/h (0 Bft) N 0 10 min 2 UV-I 403 W/m 0,0 km/h (0 Bft)
24.05.2007 09:30 19,3 C 73 % 1016,9 hPa 0,0 mm 1,6 km/h (1 Bft) O 90 10 min 2 UV-I 452 W/m 6,4 km/h (2 Bft)
24.05.2007 09:40 19,5 C 73 % 1016,8 hPa 0,0 mm 1,6 km/h (1 Bft) NO 45 10 min 3 UV-I 489 W/m 4,8 km/h (1 Bft)
24.05.2007 09:50 19,9 C 71 % 1016,8 hPa 0,0 mm 1,6 km/h (1 Bft) O-NO 67 10 min 3 UV-I 510 W/m 4,8 km/h (1 Bft)
24.05.2007 10:00 20,2 C 70 % 1016,7 hPa 0,0 mm 1,6 km/h (1 Bft) O 90 10 min 3 UV-I 536 W/m 4,8 km/h (1 Bft)
24.05.2007 10:10 20,3 C 70 % 1016,7 hPa 0,0 mm 1,6 km/h (1 Bft) O 90 10 min 3 UV-I 559 W/m 6,4 km/h (2 Bft)
24.05.2007 10:20 20,2 C 70 % 1016,6 hPa 0,0 mm 1,6 km/h (1 Bft) O-NO 67 10 min 4 UV-I 591 W/m 6,4 km/h (2 Bft)
24.05.2007 10:30 20,7 C 69 % 1016,4 hPa 0,0 mm 1,6 km/h (1 Bft) NO 45 10 min 4 UV-I 615 W/m 4,8 km/h (1 Bft)
24.05.2007 10:40 21,0 C 69 % 1016,4 hPa 0,0 mm 1,6 km/h (1 Bft) O 90 10 min 4 UV-I 659 W/m 8,0 km/h (2 Bft)
24.05.2007 10:50 20,9 C 69 % 1016,4 hPa 0,0 mm 1,6 km/h (1 Bft) O 90 10 min 4 UV-I 659 W/m 4,8 km/h (1 Bft)
24.05.2007 11:00 21,2 C 69 % 1016,4 hPa 0,0 mm 1,6 km/h (1 Bft) O 90 0 min 3 UV-I 366 W/m 6,4 km/h (2 Bft)
24.05.2007 11:10 21,1 C 70 % 1016,2 hPa 0,0 mm 1,6 km/h (1 Bft) O-NO 67 10 min 5 UV-I 733 W/m 4,8 km/h (1 Bft)
24.05.2007 11:20 21,6 C 70 % 1016,1 hPa 0,0 mm 1,6 km/h (1 Bft) O-NO 67 10 min 5 UV-I 717 W/m 8,0 km/h (2 Bft)
24.05.2007 11:30 21,9 C 66 % 1016,0 hPa 0,0 mm 1,6 km/h (1 Bft) SO 135 10 min 5 UV-I 816 W/m 6,4 km/h (2 Bft)
24.05.2007 11:40 22,3 C 67 % 1016,1 hPa 0,0 mm 1,6 km/h (1 Bft) O 90 10 min 5 UV-I 793 W/m 6,4 km/h (2 Bft)
24.05.2007 11:50 22,6 C 65 % 1016,1 hPa 0,0 mm 1,6 km/h (1 Bft) O 90 10 min 6 UV-I 875 W/m 4,8 km/h (1 Bft)
24.05.2007 12:00 22,6 C 64 % 1015,8 hPa 0,0 mm 1,6 km/h (1 Bft) O 90 10 min 6 UV-I 879 W/m 4,8 km/h (1 Bft)
24.05.2007 12:10 22,9 C 64 % 1015,7 hPa 0,0 mm 1,6 km/h (1 Bft) O 90 10 min 6 UV-I 780 W/m 4,8 km/h (1 Bft)
24.05.2007 12:20 23,1 C 65 % 1015,8 hPa 0,0 mm 1,6 km/h (1 Bft) O-SO 112 10 min 6 UV-I 795 W/m 8,0 km/h (2 Bft)
24.05.2007 12:30 23,3 C 62 % 1015,7 hPa 0,0 mm 1,6 km/h (1 Bft) O 90 10 min 6 UV-I 939 W/m 8,0 km/h (2 Bft)
24.05.2007 12:40 23,6 C 61 % 1015,6 hPa 0,0 mm 1,6 km/h (1 Bft) O-NO 67 10 min 6 UV-I 940 W/m 6,4 km/h (2 Bft)
24.05.2007 12:50 23,8 C 62 % 1015,4 hPa 0,0 mm 1,6 km/h (1 Bft) O-SO 112 10 min 6 UV-I 867 W/m 6,4 km/h (2 Bft)
24.05.2007 13:00 23,8 C 63 % 1015,3 hPa 0,0 mm 1,6 km/h (1 Bft) O-NO 67 10 min 7 UV-I 884 W/m 6,4 km/h (2 Bft)
24.05.2007 13:10 24,2 C 61 % 1015,1 hPa 0,0 mm 1,6 km/h (1 Bft) O-SO 112 10 min 7 UV-I 860 W/m 4,8 km/h (1 Bft)
24.05.2007 13:20 24,2 C 62 % 1015,1 hPa 0,0 mm 1,6 km/h (1 Bft) O-NO 67 10 min 6 UV-I 844 W/m 4,8 km/h (1 Bft)
24.05.2007 13:30 24,4 C 58 % 1014,9 hPa 0,0 mm 1,6 km/h (1 Bft) O 90 10 min 6 UV-I 874 W/m 6,4 km/h (2 Bft)
24.05.2007 13:40 24,5 C 59 % 1014,7 hPa 0,0 mm 1,6 km/h (1 Bft) O 90 10 min 6 UV-I 867 W/m 6,4 km/h (2 Bft)
24.05.2007 13:50 24,6 C 58 % 1014,6 hPa 0,0 mm 1,6 km/h (1 Bft) W-NW 292 10 min 6 UV-I 898 W/m 6,4 km/h (2 Bft)
24.05.2007 14:00 25,2 C 59 % 1014,5 hPa 0,0 mm 1,6 km/h (1 Bft) O-NO 67 10 min 6 UV-I 921 W/m 4,8 km/h (1 Bft)
24.05.2007 14:10 24,9 C 59 % 1014,4 hPa 0,0 mm 1,6 km/h (1 Bft) NW 315 10 min 6 UV-I 872 W/m 3,2 km/h (1 Bft)
24.05.2007 14:20 25,2 C 57 % 1014,2 hPa 0,0 mm 1,6 km/h (1 Bft) W-NW 292 10 min 6 UV-I 877 W/m 4,8 km/h (1 Bft)
24.05.2007 14:30 25,4 C 59 % 1014,1 hPa 0,0 mm 0,0 km/h (0 Bft) W 270 10 min 6 UV-I 875 W/m 4,8 km/h (1 Bft)
24.05.2007 14:40 25,7 C 58 % 1014,0 hPa 0,0 mm 1,6 km/h (1 Bft) W-NW 292 10 min 6 UV-I 868 W/m 6,4 km/h (2 Bft)
24.05.2007 14:50 25,7 C 58 % 1013,7 hPa 0,0 mm 1,6 km/h (1 Bft) NW 315 10 min 6 UV-I 840 W/m 6,4 km/h (2 Bft)
24.05.2007 15:00 26,0 C 56 % 1013,7 hPa 0,0 mm 1,6 km/h (1 Bft) W-NW 292 10 min 6 UV-I 802 W/m 4,8 km/h (1 Bft)
24.05.2007 15:10 26,1 C 57 % 1013,6 hPa 0,0 mm 1,6 km/h (1 Bft) W-NW 292 10 min 6 UV-I 784 W/m 4,8 km/h (1 Bft)
24.05.2007 15:20 26,1 C 57 % 1013,5 hPa 0,0 mm 1,6 km/h (1 Bft) W-NW 292 10 min 5 UV-I 773 W/m 6,4 km/h (2 Bft)
24.05.2007 15:30 25,9 C 56 % 1013,4 hPa 0,0 mm 1,6 km/h (1 Bft) W-NW 292 10 min 5 UV-I 837 W/m 9,7 km/h (2 Bft)
24.05.2007 15:40 26,7 C 54 % 1013,2 hPa 0,0 mm 1,6 km/h (1 Bft) W 270 10 min 5 UV-I 844 W/m 4,8 km/h (1 Bft)
24.05.2007 15:50 26,2 C 56 % 1013,2 hPa 0,0 mm 0,0 km/h (0 Bft) W-SW 247 10 min 5 UV-I 795 W/m 4,8 km/h (1 Bft)
24.05.2007 16:00 26,4 C 56 % 1013,0 hPa 0,0 mm 0,0 km/h (0 Bft) O-NO 67 10 min 4 UV-I 731 W/m 3,2 km/h (1 Bft)
24.05.2007 16:10 26,4 C 56 % 1012,9 hPa 0,0 mm 1,6 km/h (1 Bft) W-NW 292 10 min 4 UV-I 710 W/m 6,4 km/h (2 Bft)
24.05.2007 16:20 26,6 C 55 % 1013,1 hPa 0,0 mm 1,6 km/h (1 Bft) W-NW 292 10 min 4 UV-I 763 W/m 4,8 km/h (1 Bft)
24.05.2007 16:30 26,3 C 55 % 1013,0 hPa 0,0 mm 1,6 km/h (1 Bft) W-SW 247 10 min 4 UV-I 664 W/m 6,4 km/h (2 Bft)
24.05.2007 16:40 26,2 C 57 % 1012,9 hPa 0,0 mm 0,0 km/h (0 Bft) W-NW 292 10 min 3 UV-I 642 W/m 4,8 km/h (1 Bft)
24.05.2007 16:50 26,1 C 55 % 1012,7 hPa 0,0 mm 1,6 km/h (1 Bft) W-SW 247 10 min 3 UV-I 550 W/m 4,8 km/h (1 Bft)
24.05.2007 17:00 26,4 C 54 % 1012,5 hPa 0,0 mm 1,6 km/h (1 Bft) W 270 10 min 3 UV-I 577 W/m 4,8 km/h (1 Bft)
24.05.2007 17:10 26,4 C 56 % 1012,3 hPa 0,0 mm 0,0 km/h (0 Bft) W 270 10 min 3 UV-I 566 W/m 4,8 km/h (1 Bft)
24.05.2007 17:20 26,5 C 55 % 1012,2 hPa 0,0 mm 1,6 km/h (1 Bft) W 270 10 min 3 UV-I 529 W/m 6,4 km/h (2 Bft)
24.05.2007 17:30 25,9 C 56 % 1012,3 hPa 0,0 mm 1,6 km/h (1 Bft) W 270 0 min 2 UV-I 237 W/m 8,0 km/h (2 Bft)
24.05.2007 17:40 25,6 C 57 % 1012,1 hPa 0,0 mm 0,0 km/h (0 Bft) W-NW 292 0 min 1 UV-I 197 W/m 3,2 km/h (1 Bft)
24.05.2007 17:50 25,4 C 58 % 1011,9 hPa 0,0 mm 0,0 km/h (0 Bft) W-SW 247 0 min 1 UV-I 160 W/m 3,2 km/h (1 Bft)
24.05.2007 18:00 25,3 C 58 % 1011,8 hPa 0,0 mm 0,0 km/h (0 Bft) W 270 0 min 1 UV-I 155 W/m 3,2 km/h (1 Bft)
24.05.2007 18:10 25,3 C 57 % 1011,7 hPa 0,0 mm 0,0 km/h (0 Bft) W 270 0 min 1 UV-I 156 W/m 3,2 km/h (1 Bft)
24.05.2007 18:20 25,3 C 58 % 1011,6 hPa 0,0 mm 0,0 km/h (0 Bft) W 270 0 min 1 UV-I 190 W/m 4,8 km/h (1 Bft)
24.05.2007 18:30 25,3 C 56 % 1011,6 hPa 0,0 mm 0,0 km/h (0 Bft) W 270 10 min 1 UV-I 315 W/m 3,2 km/h (1 Bft)
24.05.2007 18:40 25,3 C 58 % 1011,6 hPa 0,0 mm 0,0 km/h (0 Bft) W 270 0 min 1 UV-I 139 W/m 3,2 km/h (1 Bft)
24.05.2007 18:50 25,2 C 60 % 1011,4 hPa 0,0 mm 0,0 km/h (0 Bft) N 0 10 min 1 UV-I 271 W/m 0,0 km/h (0 Bft)
24.05.2007 19:00 25,3 C 60 % 1011,3 hPa 0,0 mm 0,0 km/h (0 Bft) W 270 10 min 1 UV-I 237 W/m 4,8 km/h (1 Bft)
24.05.2007 19:10 25,2 C 61 % 1011,3 hPa 0,0 mm 0,0 km/h (0 Bft) W-NW 292 10 min 1 UV-I 213 W/m 3,2 km/h (1 Bft)
24.05.2007 19:20 25,1 C 62 % 1011,2 hPa 0,0 mm 0,0 km/h (0 Bft) W-NW 292 10 min 1 UV-I 204 W/m 1,6 km/h (1 Bft)
24.05.2007 19:30 25,1 C 61 % 1011,1 hPa 0,0 mm 0,0 km/h (0 Bft) W-NW 292 10 min 1 UV-I 188 W/m 4,8 km/h (1 Bft)
24.05.2007 19:40 24,9 C 62 % 1011,1 hPa 0,0 mm 1,6 km/h (1 Bft) O-NO 67 10 min 1 UV-I 132 W/m 6,4 km/h (2 Bft)
24.05.2007 19:50 24,6 C 63 % 1011,1 hPa 0,0 mm 0,0 km/h (0 Bft) S-SW 202 0 min 0 UV-I 100 W/m 3,2 km/h (1 Bft)
24.05.2007 20:00 24,4 C 64 % 1011,1 hPa 0,0 mm 0,0 km/h (0 Bft) W 270 10 min 0 UV-I 104 W/m 4,8 km/h (1 Bft)
24.05.2007 20:10 24,6 C 64 % 1011,1 hPa 0,0 mm 0,0 km/h (0 Bft) O-NO 67 10 min 0 UV-I 111 W/m 3,2 km/h (1 Bft)
24.05.2007 20:20 24,5 C 65 % 1011,0 hPa 0,0 mm 0,0 km/h (0 Bft) O-NO 67 10 min 0 UV-I 90 W/m 1,6 km/h (1 Bft)
24.05.2007 20:30 24,3 C 65 % 1011,0 hPa 0,0 mm 0,0 km/h (0 Bft) O-NO 67 10 min 0 UV-I 62 W/m 1,6 km/h (1 Bft)
24.05.2007 20:40 24,1 C 66 % 1011,0 hPa 0,0 mm 0,0 km/h (0 Bft) O-NO 67 0 min 0 UV-I 46 W/m 1,6 km/h (1 Bft)
24.05.2007 20:50 23,8 C 67 % 1011,0 hPa 0,0 mm 0,0 km/h (0 Bft) O-NO 67 0 min 0 UV-I 33 W/m 1,6 km/h (1 Bft)
24.05.2007 21:00 23,6 C 68 % 1011,1 hPa 0,0 mm 0,0 km/h (0 Bft) O-NO 67 10 min 0 UV-I 25 W/m 1,6 km/h (1 Bft)
24.05.2007 21:10 23,3 C 69 % 1010,9 hPa 0,0 mm 0,0 km/h (0 Bft) O-NO 67 10 min 0 UV-I 18 W/m 1,6 km/h (1 Bft)
24.05.2007 21:20 23,1 C 70 % 1010,9 hPa 0,0 mm 0,0 km/h (0 Bft) N 0 0 min 0 UV-I 0 W/m 0,0 km/h (0 Bft)
24.05.2007 21:30 22,8 C 71 % 1010,9 hPa 0,0 mm 0,0 km/h (0 Bft) N 0 0 min 0 UV-I 0 W/m 0,0 km/h (0 Bft)
24.05.2007 21:40 22,6 C 72 % 1011,0 hPa 0,0 mm 0,0 km/h (0 Bft) N 0 0 min 0 UV-I 0 W/m 0,0 km/h (0 Bft)
24.05.2007 21:50 22,2 C 73 % 1011,0 hPa 0,0 mm 0,0 km/h (0 Bft) N 0 0 min 0 UV-I 0 W/m 0,0 km/h (0 Bft)
24.05.2007 22:00 21,9 C 75 % 1011,1 hPa 0,0 mm 0,0 km/h (0 Bft) N 0 0 min 0 UV-I 0 W/m 0,0 km/h (0 Bft)
24.05.2007 22:10 21,3 C 77 % 1011,0 hPa 0,0 mm 0,0 km/h (0 Bft) N 0 0 min 0 UV-I 0 W/m 0,0 km/h (0 Bft)
24.05.2007 22:20 21,2 C 77 % 1011,0 hPa 0,0 mm 0,0 km/h (0 Bft) N 0 0 min 0 UV-I 0 W/m 0,0 km/h (0 Bft)
24.05.2007 22:30 21,2 C 78 % 1010,9 hPa 0,0 mm 0,0 km/h (0 Bft) N 0 0 min 0 UV-I 0 W/m 0,0 km/h (0 Bft)
24.05.2007 22:40 20,9 C 80 % 1010,8 hPa 0,0 mm 0,0 km/h (0 Bft) N 0 0 min 0 UV-I 0 W/m 0,0 km/h (0 Bft)
24.05.2007 22:50 20,6 C 82 % 1010,7 hPa 0,0 mm 0,0 km/h (0 Bft) N 0 0 min 0 UV-I 0 W/m 0,0 km/h (0 Bft)
24.05.2007 23:00 20,5 C 82 % 1010,6 hPa 0,0 mm 0,0 km/h (0 Bft) N 0 0 min 0 UV-I 0 W/m 0,0 km/h (0 Bft)
24.05.2007 23:10 20,4 C 82 % 1010,5 hPa 0,0 mm 0,0 km/h (0 Bft) N 0 0 min 0 UV-I 0 W/m 0,0 km/h (0 Bft)
24.05.2007 23:20 20,4 C 83 % 1010,4 hPa 0,0 mm 0,0 km/h (0 Bft) N 0 0 min 0 UV-I 0 W/m 0,0 km/h (0 Bft)
24.05.2007 23:30 20,3 C 85 % 1010,3 hPa 0,0 mm 0,0 km/h (0 Bft) N 0 0 min 0 UV-I 0 W/m 0,0 km/h (0 Bft)
24.05.2007 23:40 20,2 C 82 % 1010,3 hPa 0,0 mm 0,0 km/h (0 Bft) N 0 0 min 0 UV-I 0 W/m 0,0 km/h (0 Bft)
24.05.2007 23:50 20,2 C 84 % 1010,2 hPa 0,0 mm 0,0 km/h (0 Bft) N 0 0 min 0 UV-I 0 W/m 0,0 km/h (0 Bft)
_ Min-Zeit 05:30 15:40 23:50 - 00:00 - - - - - 00:10
Minimum _ 12,3 C 54 % 1010,2 hPa - 0,0 km/h (0 Bft) - - - - - 0,0 km/h (0 Bft)
_ Max-Zeit 15:40 06:00 00:10 00:00 09:30 - - 07:30 13:00 12:40 15:30
Maximum _ 26,9 C 90 % 1019,5 hPa 0,0 mm 1,6 km/h
O (1 Bft)
- - 10 min 7 UV-I 940 W/m 9,7 km/h
N (2 Bft)
Durchschnitt _ 19,9 C 73 % 1015,2 hPa #0,0 mm 0,5 km/h (0 Bft) O - #12:00 h 4 UV-I 455 W/m 2,4 km/h (1 Bft)